createdAt,value
2019-02-05T00:01:28.217Z,99.90
2019-02-05T00:04:01.659Z,99.90
2019-02-05T00:06:34.925Z,99.90
2019-02-05T00:09:14.394Z,99.90
2019-02-05T00:11:50.521Z,99.90
2019-02-05T00:14:23.744Z,99.90
2019-02-05T00:16:59.008Z,99.90
2019-02-05T00:19:34.954Z,99.90
2019-02-05T00:22:09.057Z,99.90
2019-02-05T00:24:43.129Z,99.90
2019-02-05T00:27:18.206Z,99.90
2019-02-05T00:29:52.442Z,99.90
2019-02-05T00:32:25.421Z,99.90
2019-02-05T00:34:58.565Z,99.90
2019-02-05T00:37:33.570Z,99.90
2019-02-05T00:40:07.903Z,99.90
2019-02-05T00:42:42.370Z,99.90
2019-02-05T00:45:18.308Z,99.90
2019-02-05T00:47:52.514Z,99.90
2019-02-05T00:50:26.079Z,99.90
2019-02-05T00:53:00.303Z,99.90
2019-02-05T00:55:33.357Z,99.90
2019-02-05T00:58:06.723Z,99.90
2019-02-05T01:00:41.857Z,99.90
2019-02-05T01:03:15.080Z,99.90
2019-02-05T01:05:48.310Z,99.90
2019-02-05T01:08:23.188Z,99.90
2019-02-05T01:10:57.674Z,99.90
2019-02-05T01:13:32.057Z,99.90
2019-02-05T01:16:06.089Z,99.90
2019-02-05T01:18:39.778Z,99.90
2019-02-05T01:21:13.405Z,99.90
2019-02-05T01:23:46.585Z,99.90
2019-02-05T01:26:28.890Z,99.90
2019-02-05T01:28:54.559Z,99.90
2019-02-05T01:31:29.641Z,99.90
2019-02-05T01:34:04.127Z,99.90
2019-02-05T01:36:39.300Z,99.90
2019-02-05T01:39:12.509Z,99.90
2019-02-05T01:41:46.792Z,99.90
2019-02-05T01:44:20.026Z,99.90
2019-02-05T01:46:58.305Z,99.90
2019-02-05T01:49:31.385Z,99.90
2019-02-05T01:52:04.856Z,99.90
2019-02-05T01:54:37.916Z,99.90
2019-02-05T01:57:12.156Z,99.90
2019-02-05T01:59:45.273Z,99.90
2019-02-05T02:02:19.824Z,99.90
2019-02-05T02:04:52.960Z,99.90
2019-02-05T02:07:26.382Z,99.90
2019-02-05T02:09:59.629Z,99.90
2019-02-05T02:12:33.466Z,99.90
2019-02-05T02:15:06.878Z,99.90
2019-02-05T02:17:41.923Z,99.90
2019-02-05T02:20:18.502Z,99.90
2019-02-05T02:22:51.885Z,99.90
2019-02-05T02:25:25.055Z,99.90
2019-02-05T02:27:58.254Z,99.90
2019-02-05T02:30:38.987Z,99.90
2019-02-05T02:33:12.141Z,99.90
2019-02-05T02:35:47.776Z,99.90
2019-02-05T02:38:21.187Z,99.90
2019-02-05T02:40:54.313Z,99.90
2019-02-05T02:43:27.494Z,99.90
2019-02-05T02:46:04.813Z,99.90
2019-02-05T02:48:37.780Z,99.90
2019-02-05T02:51:10.940Z,99.90
2019-02-05T02:53:45.021Z,99.90
2019-02-05T02:56:27.297Z,99.90
2019-02-05T02:59:01.392Z,99.90
2019-02-05T03:01:35.073Z,99.90
2019-02-05T03:04:08.861Z,99.90
2019-02-05T03:06:42.411Z,99.90
2019-02-05T03:09:16.423Z,99.90
2019-02-05T03:11:49.752Z,99.90
2019-02-05T03:14:22.838Z,99.90
2019-02-05T03:16:56.100Z,99.90
2019-02-05T03:19:29.513Z,99.90
2019-02-05T03:22:02.645Z,99.90
2019-02-05T03:24:35.755Z,99.90
2019-02-05T03:27:17.419Z,99.90
2019-02-05T03:29:44.739Z,99.90
2019-02-05T03:32:19.102Z,99.90
2019-02-05T03:34:53.714Z,99.90
2019-02-05T03:37:26.808Z,99.90
2019-02-05T03:40:01.498Z,99.90
2019-02-05T03:42:34.630Z,99.90
2019-02-05T03:45:08.188Z,99.90
2019-02-05T03:47:42.551Z,99.90
2019-02-05T03:50:17.887Z,99.90
2019-02-05T03:52:57.971Z,99.90
2019-02-05T03:56:06.595Z,99.90
2019-02-05T03:59:15.690Z,99.90
2019-02-05T04:02:34.486Z,99.90
2019-02-05T04:05:33.719Z,99.90
2019-02-05T04:08:49.591Z,99.90
2019-02-05T04:11:50.129Z,99.90
2019-02-05T04:14:48.462Z,99.90
2019-02-05T04:18:04.891Z,99.90
2019-02-05T04:21:35.066Z,99.90
2019-02-05T04:24:50.972Z,99.90
2019-02-05T04:27:47.420Z,99.90
2019-02-05T04:30:46.355Z,99.90
2019-02-05T04:33:50.451Z,99.90
2019-02-05T04:36:57.266Z,99.90
2019-02-05T04:40:31.020Z,99.90
2019-02-05T04:43:39.102Z,99.90
2019-02-05T04:46:39.834Z,99.90
2019-02-05T04:49:46.188Z,99.90
2019-02-05T04:52:40.301Z,99.90
2019-02-05T04:55:54.720Z,99.90
2019-02-05T04:59:11.629Z,99.90
2019-02-05T05:02:08.517Z,99.90
2019-02-05T05:05:20.520Z,99.90
2019-02-05T05:08:40.799Z,99.90
2019-02-05T05:11:14.022Z,99.90
2019-02-05T05:13:47.103Z,99.90
2019-02-05T05:16:21.874Z,99.90
2019-02-05T05:18:56.277Z,99.90
2019-02-05T05:21:29.530Z,99.90
2019-02-05T05:24:04.079Z,99.90
2019-02-05T05:26:37.473Z,99.90
2019-02-05T05:29:11.495Z,99.90
2019-02-05T05:31:44.557Z,99.90
2019-02-05T05:34:18.823Z,99.90
2019-02-05T05:36:56.467Z,99.90
2019-02-05T05:39:30.779Z,99.90
2019-02-05T05:42:06.572Z,99.90
2019-02-05T05:44:40.939Z,99.90
2019-02-05T05:47:15.136Z,99.90
2019-02-05T05:49:49.589Z,99.90
2019-02-05T05:52:22.847Z,99.90
2019-02-05T05:54:55.915Z,99.90
2019-02-05T05:57:31.590Z,99.90
2019-02-05T06:00:08.032Z,99.90
2019-02-05T06:02:42.504Z,99.90
2019-02-05T06:05:17.716Z,99.90
2019-02-05T06:07:51.841Z,99.90
2019-02-05T06:10:26.666Z,99.90
2019-02-05T06:13:00.964Z,99.90
2019-02-05T06:15:41.840Z,99.90
2019-02-05T06:18:15.321Z,99.90
2019-02-05T06:20:48.818Z,99.90
2019-02-05T06:23:22.522Z,99.90
2019-02-05T06:26:01.502Z,99.90
2019-02-05T06:28:35.105Z,99.90
2019-02-05T06:31:10.327Z,99.90
2019-02-05T06:33:43.942Z,99.90
2019-02-05T06:36:18.831Z,99.90
2019-02-05T06:38:54.480Z,99.90
2019-02-05T06:41:28.293Z,99.90
2019-02-05T06:44:02.777Z,99.90
2019-02-05T06:46:36.246Z,99.90
2019-02-05T06:49:12.167Z,99.90
2019-02-05T06:51:47.414Z,99.90
2019-02-05T06:54:22.609Z,99.90
2019-02-05T06:56:57.233Z,99.90
2019-02-05T06:59:30.753Z,99.90
2019-02-05T07:02:04.496Z,99.90
2019-02-05T07:04:39.947Z,99.90
2019-02-05T07:07:15.577Z,99.90
2019-02-05T07:09:50.067Z,99.90
2019-02-05T07:12:24.607Z,99.90
2019-02-05T07:14:59.302Z,99.90
2019-02-05T07:17:49.375Z,99.90
2019-02-05T07:20:16.487Z,99.90
2019-02-05T07:22:55.391Z,99.90
2019-02-05T07:25:28.999Z,99.90
2019-02-05T07:28:02.719Z,99.90
2019-02-05T07:30:36.342Z,99.90
2019-02-05T07:33:10.366Z,99.90
2019-02-05T07:35:46.295Z,99.90
2019-02-05T07:38:20.084Z,99.90
2019-02-05T07:40:53.703Z,99.90
2019-02-05T07:43:27.157Z,99.90
2019-02-05T07:46:08.237Z,99.90
2019-02-05T07:48:43.004Z,99.90
2019-02-05T07:51:17.643Z,99.90
2019-02-05T07:53:50.926Z,99.90
2019-02-05T07:56:27.949Z,99.90
2019-02-05T07:59:09.913Z,99.90
2019-02-05T08:01:37.757Z,99.90
2019-02-05T08:04:11.686Z,99.90
2019-02-05T08:06:46.094Z,99.90
2019-02-05T08:09:19.132Z,99.90
2019-02-05T08:11:52.399Z,99.90
2019-02-05T08:14:25.874Z,99.90
2019-02-05T08:17:01.331Z,99.90
2019-02-05T08:19:34.430Z,99.90
2019-02-05T08:22:07.660Z,99.90
2019-02-05T08:24:42.542Z,99.90
2019-02-05T08:27:18.301Z,99.90
2019-02-05T08:29:51.324Z,99.90
2019-02-05T08:32:25.884Z,99.90
2019-02-05T08:35:00.606Z,99.90
2019-02-05T08:37:33.766Z,99.90
2019-02-05T08:40:08.607Z,99.90
2019-02-05T08:42:41.674Z,99.90
2019-02-05T08:45:17.649Z,99.90
2019-02-05T08:47:52.154Z,99.90
2019-02-05T08:50:28.365Z,99.90
2019-02-05T08:53:02.751Z,99.90
2019-02-05T08:55:36.099Z,99.90
2019-02-05T08:58:11.334Z,99.90
2019-02-05T09:00:45.642Z,99.90
2019-02-05T09:03:20.750Z,99.90
2019-02-05T09:05:55.176Z,99.90
2019-02-05T09:08:30.684Z,99.90
2019-02-05T09:11:05.279Z,99.90
2019-02-05T09:13:39.706Z,99.90
2019-02-05T09:16:12.845Z,99.90
2019-02-05T09:18:45.912Z,99.90
2019-02-05T09:21:20.575Z,99.90
2019-02-05T09:23:55.938Z,99.90
2019-02-05T09:26:31.095Z,99.90
2019-02-05T09:29:04.111Z,99.90
2019-02-05T09:31:37.416Z,99.90
2019-02-05T09:34:10.371Z,99.90
2019-02-05T09:36:45.505Z,99.90
2019-02-05T09:39:18.630Z,99.90
2019-02-05T09:41:52.428Z,99.90
2019-02-05T09:44:25.375Z,99.90
2019-02-05T09:47:00.166Z,99.90
2019-02-05T09:49:35.386Z,99.90
2019-02-05T09:52:10.128Z,99.90
2019-02-05T09:54:43.302Z,99.90
2019-02-05T09:57:17.594Z,99.90
2019-02-05T09:59:50.827Z,99.90
2019-02-05T10:02:25.956Z,99.90
2019-02-05T10:05:00.830Z,99.90
2019-02-05T10:07:41.316Z,99.90
2019-02-05T10:10:17.481Z,99.90
2019-02-05T10:12:53.869Z,99.90
2019-02-05T10:15:31.150Z,99.90
2019-02-05T10:18:06.981Z,99.90
2019-02-05T10:20:40.073Z,99.90
2019-02-05T10:23:14.930Z,99.90
2019-02-05T10:25:51.246Z,99.90
2019-02-05T10:28:24.350Z,99.90
2019-02-05T10:30:59.206Z,99.90
2019-02-05T10:33:32.471Z,99.90
2019-02-05T10:36:06.344Z,99.90
2019-02-05T10:38:40.714Z,99.90
2019-02-05T10:41:15.718Z,99.90
2019-02-05T10:43:52.312Z,99.90
2019-02-05T10:46:27.605Z,99.90
2019-02-05T10:49:03.277Z,99.90
2019-02-05T10:51:37.136Z,99.90
2019-02-05T10:54:10.285Z,99.90
2019-02-05T10:56:45.413Z,99.90
2019-02-05T10:59:18.613Z,99.90
2019-02-05T11:01:51.782Z,99.90
2019-02-05T11:04:24.948Z,99.90
2019-02-05T11:06:58.095Z,99.90
2019-02-05T11:09:31.278Z,99.90
2019-02-05T11:12:05.941Z,99.90
2019-02-05T11:14:39.147Z,99.90
2019-02-05T11:17:14.475Z,99.90
2019-02-05T11:19:48.731Z,99.90
2019-02-05T11:22:25.812Z,99.90
2019-02-05T11:24:58.962Z,99.90
2019-02-05T11:27:32.190Z,99.90
2019-02-05T11:30:05.301Z,99.90
2019-02-05T11:32:38.226Z,99.90
2019-02-05T11:35:12.228Z,99.90
2019-02-05T11:37:45.335Z,99.90
2019-02-05T11:40:27.718Z,99.90
2019-02-05T11:43:01.030Z,99.90
2019-02-05T11:45:43.594Z,99.90
2019-02-05T11:48:19.508Z,99.90
2019-02-05T11:51:03.389Z,99.90
2019-02-05T11:54:16.754Z,99.90
2019-02-05T11:58:06.355Z,99.90
2019-02-05T12:01:16.149Z,99.90
2019-02-05T12:03:58.087Z,99.90
2019-02-05T12:06:52.156Z,99.90
2019-02-05T12:09:29.177Z,99.90
2019-02-05T12:12:24.108Z,99.90
2019-02-05T12:18:36.837Z,99.90
2019-02-05T12:24:39.105Z,99.90
2019-02-05T12:27:22.819Z,99.90
2019-02-05T12:29:51.630Z,99.90
2019-02-05T12:32:26.300Z,99.90
2019-02-05T12:35:02.257Z,99.90
2019-02-05T12:37:35.606Z,99.90
2019-02-05T12:41:21.011Z,99.90
2019-02-05T12:48:07.676Z,99.90
2019-02-05T12:51:25.722Z,99.90
2019-02-05T12:54:38.913Z,99.90
2019-02-05T12:57:13.319Z,99.90
2019-02-05T13:02:56.814Z,99.90
2019-02-05T13:05:30.048Z,99.90
2019-02-05T13:08:05.407Z,99.90
2019-02-05T13:10:46.185Z,99.90
2019-02-05T13:13:19.876Z,99.90
2019-02-05T13:16:01.953Z,99.90
2019-02-05T13:18:34.831Z,99.90
2019-02-05T13:21:07.758Z,99.90
2019-02-05T13:23:40.971Z,99.90
2019-02-05T13:26:15.684Z,99.90
2019-02-05T13:28:50.722Z,99.90
2019-02-05T13:31:23.794Z,99.90
2019-02-05T13:33:57.227Z,99.90
2019-02-05T13:36:35.098Z,99.90
2019-02-05T13:39:13.579Z,99.90
2019-02-05T13:41:47.110Z,99.90
2019-02-05T13:44:20.039Z,99.90
2019-02-05T13:46:59.521Z,99.90
2019-02-05T13:49:35.203Z,99.90
2019-02-05T13:52:08.555Z,99.90
2019-02-05T13:54:44.851Z,99.90
2019-02-05T13:58:01.064Z,99.90
2019-02-05T14:00:41.757Z,99.90
2019-02-05T14:03:18.127Z,99.90
2019-02-05T14:05:51.291Z,99.90
2019-02-05T14:08:25.169Z,99.90
2019-02-05T14:11:00.247Z,99.90
2019-02-05T14:13:36.330Z,99.90
2019-02-05T14:16:13.156Z,99.90
2019-02-05T14:18:54.925Z,99.90
2019-02-05T14:21:22.411Z,99.90
2019-02-05T14:23:56.564Z,99.90
2019-02-05T14:26:29.522Z,99.90
2019-02-05T14:29:05.711Z,99.90
2019-02-05T14:31:54.294Z,99.90
2019-02-05T14:34:27.600Z,99.90
2019-02-05T14:37:37.628Z,99.90
2019-02-05T14:46:44.596Z,99.90
2019-02-05T14:47:29.400Z,99.90
2019-02-05T14:50:02.510Z,99.90
2019-02-05T14:52:41.635Z,99.90
2019-02-05T14:55:13.417Z,99.90
2019-02-05T14:58:27.153Z,99.90
2019-02-05T15:01:00.394Z,99.90
2019-02-05T15:03:36.537Z,99.90
2019-02-05T15:07:03.850Z,99.90
2019-02-05T15:10:00.643Z,99.90
2019-02-05T15:12:38.694Z,99.90
2019-02-05T15:15:20.775Z,99.90
2019-02-05T15:17:54.120Z,99.90
2019-02-05T15:20:32.917Z,99.90
2019-02-05T15:23:06.781Z,99.90
2019-02-05T15:25:46.258Z,99.90
2019-02-05T15:28:22.160Z,99.90
2019-02-05T15:30:55.237Z,99.90
2019-02-05T15:34:11.322Z,99.90
2019-02-05T15:36:47.080Z,99.90
2019-02-05T15:39:25.982Z,99.90
2019-02-05T15:42:18.395Z,99.90
2019-02-05T15:44:54.599Z,99.90
2019-02-05T15:47:28.071Z,99.90
2019-02-05T15:50:06.187Z,99.90
2019-02-05T15:53:09.564Z,99.90
2019-02-05T15:55:49.049Z,99.90
2019-02-05T15:58:25.032Z,99.90
2019-02-05T16:01:42.909Z,99.90
2019-02-05T16:04:20.283Z,99.90
2019-02-05T16:06:58.154Z,99.90
2019-02-05T16:09:37.526Z,99.90
2019-02-05T16:12:15.059Z,99.90
2019-02-05T16:14:48.023Z,99.90
2019-02-05T16:28:18.190Z,99.90
2019-02-05T16:45:06.277Z,99.90
2019-02-05T16:51:28.885Z,99.90
2019-02-05T16:55:53.826Z,99.90
2019-02-05T16:58:04.779Z,99.90
2019-02-05T17:04:30.324Z,99.90
2019-02-05T17:07:41.392Z,99.90
2019-02-05T17:10:17.872Z,99.90
2019-02-05T17:13:13.998Z,99.90
2019-02-05T17:16:06.582Z,99.90
2019-02-05T17:18:39.544Z,99.90
2019-02-05T17:21:12.541Z,99.90
2019-02-05T17:24:04.134Z,99.90
2019-02-05T17:26:47.063Z,99.90
2019-02-05T17:29:20.827Z,99.90
2019-02-05T17:31:56.788Z,99.90
2019-02-05T17:38:03.773Z,99.90
2019-02-05T17:40:40.598Z,99.90
2019-02-05T17:43:22.294Z,99.90
2019-02-05T17:46:05.516Z,99.90
2019-02-05T17:48:45.971Z,99.90
2019-02-05T17:51:29.479Z,99.90
2019-02-05T17:54:03.243Z,99.90
2019-02-05T17:56:43.662Z,99.90
2019-02-05T17:59:16.920Z,99.40
2019-02-05T18:01:52.653Z,99.40
2019-02-05T18:04:25.700Z,99.00
2019-02-05T18:06:59.020Z,99.40
2019-02-05T18:09:32.379Z,98.70
2019-02-05T18:12:05.909Z,98.30
2019-02-05T18:14:38.907Z,98.60
2019-02-05T18:17:18.082Z,97.70
2019-02-05T18:19:51.864Z,97.50
2019-02-05T18:22:25.305Z,95.10
2019-02-05T18:25:03.242Z,93.90
2019-02-05T18:27:36.910Z,93.00
2019-02-05T18:30:17.732Z,93.30
2019-02-05T18:33:03.273Z,91.70
2019-02-05T18:35:29.709Z,93.40
2019-02-05T18:38:02.922Z,93.50
2019-02-05T18:40:35.864Z,93.50
2019-02-05T18:43:15.313Z,93.30
2019-02-05T18:45:49.972Z,92.50
2019-02-05T18:48:23.073Z,93.60
2019-02-05T18:50:56.613Z,92.30
2019-02-05T18:53:32.062Z,92.20
2019-02-05T18:56:10.975Z,91.70
2019-02-05T18:58:43.823Z,91.10
2019-02-05T19:01:40.350Z,91.50
2019-02-05T19:04:48.221Z,91.30
2019-02-05T19:07:23.594Z,90.90
2019-02-05T19:10:02.222Z,90.40
2019-02-05T19:12:37.032Z,90.10
2019-02-05T19:15:19.789Z,90.10
2019-02-05T19:18:14.759Z,89.00
2019-02-05T19:21:34.800Z,90.20
2019-02-05T19:23:51.541Z,90.30
2019-02-05T19:26:39.556Z,89.60
2019-02-05T19:29:18.855Z,90.50
2019-02-05T19:31:47.826Z,89.50
2019-02-05T19:34:22.312Z,87.50
2019-02-05T19:36:55.723Z,87.30
2019-02-05T19:39:28.565Z,88.10
2019-02-05T19:42:06.077Z,88.30
2019-02-05T19:44:42.753Z,88.50
2019-02-05T19:47:26.672Z,88.20
2019-02-05T19:50:01.579Z,87.30
2019-02-05T19:52:36.258Z,87.70
2019-02-05T19:55:15.674Z,87.00
2019-02-05T19:57:49.264Z,85.90
2019-02-05T20:00:23.775Z,86.50
2019-02-05T20:02:57.796Z,84.40
2019-02-05T20:06:28.590Z,84.80
2019-02-05T20:09:04.901Z,83.20
2019-02-05T20:11:38.132Z,83.10
2019-02-05T20:14:11.193Z,81.10
2019-02-05T20:18:12.708Z,82.80
2019-02-05T20:20:41.836Z,79.90
2019-02-05T20:23:14.652Z,81.50
2019-02-05T20:25:50.462Z,79.40
2019-02-05T20:28:24.721Z,78.90
2019-02-05T20:31:03.164Z,79.00
2019-02-05T20:33:36.447Z,75.30
2019-02-05T20:36:11.206Z,74.10
2019-02-05T20:38:45.003Z,74.60
2019-02-05T20:41:43.512Z,75.50
2019-02-05T20:44:19.056Z,73.90
2019-02-05T20:46:59.617Z,72.60
2019-02-05T20:49:32.919Z,73.50
2019-02-05T20:52:27.145Z,74.40
2019-02-05T20:55:07.515Z,74.70
2019-02-05T20:57:51.159Z,74.60
2019-02-05T21:00:24.785Z,74.30
2019-02-05T21:03:10.741Z,72.60
2019-02-05T21:05:44.228Z,71.00
2019-02-05T21:14:26.881Z,71.40
2019-02-05T21:17:03.390Z,72.50
2019-02-05T21:23:20.515Z,70.10
2019-02-05T21:26:25.984Z,70.20
2019-02-05T21:35:34.810Z,71.90
2019-02-05T21:50:19.552Z,73.20
2019-02-05T21:53:08.486Z,73.50
2019-02-05T21:55:54.330Z,73.10
2019-02-05T21:58:33.843Z,73.90
2019-02-05T22:01:07.636Z,73.90
2019-02-05T22:03:40.869Z,73.80
2019-02-05T22:06:26.944Z,73.40
2019-02-05T22:09:00.764Z,73.50
2019-02-05T22:11:34.467Z,73.80
2019-02-05T22:14:08.946Z,74.00
2019-02-05T22:17:20.728Z,74.80
2019-02-05T22:19:54.015Z,74.80
2019-02-05T22:22:27.221Z,73.10
2019-02-05T22:25:00.449Z,73.20
2019-02-05T22:27:37.090Z,74.00
2019-02-05T22:30:17.488Z,73.90
2019-02-05T22:32:50.996Z,74.40
2019-02-05T22:35:24.199Z,75.90
2019-02-05T22:37:57.591Z,77.00
2019-02-05T22:40:31.473Z,77.60
2019-02-05T22:43:06.384Z,77.40
2019-02-05T22:45:41.086Z,77.80
2019-02-05T22:48:14.549Z,79.20
2019-02-05T22:50:47.622Z,81.20
2019-02-05T22:53:21.093Z,81.70
2019-02-05T22:56:01.590Z,81.90
2019-02-05T22:58:34.688Z,83.20
2019-02-05T23:01:38.171Z,84.70
2019-02-05T23:04:50.881Z,85.10
2019-02-05T23:07:27.396Z,86.30
2019-02-05T23:10:36.057Z,87.90
2019-02-05T23:13:21.991Z,88.60
2019-02-05T23:16:01.674Z,90.30
2019-02-05T23:18:35.045Z,90.70
2019-02-05T23:21:08.580Z,91.00
2019-02-05T23:23:44.589Z,91.20
2019-02-05T23:26:24.799Z,91.60
2019-02-05T23:28:58.930Z,91.90
2019-02-05T23:31:32.644Z,92.00
2019-02-05T23:34:06.191Z,92.70
2019-02-05T23:36:39.990Z,93.10
2019-02-05T23:39:13.409Z,93.90
2019-02-05T23:41:49.081Z,94.50
2019-02-05T23:44:22.220Z,95.70
2019-02-05T23:46:56.254Z,96.50
2019-02-05T23:49:29.401Z,96.90
2019-02-05T23:52:02.550Z,97.60
2019-02-05T23:54:35.886Z,98.20
2019-02-05T23:57:11.608Z,99.10
2019-02-05T23:59:45.051Z,99.50
